Time;durP1;ratioP1;P1;durP2;ratioP2;P2;SDS_P1;SDS_P2;PMS_P1;PMS_P2;Temp;Humidity;BMP_temperature;BMP_pressure;BME280_temperature;BME280_humidity;BME280_pressure;Samples;Min_cycle;Max_cycle;Signal;HPM_P1;HPM_P2
2023/07/08 00:01:15;;;;;;;1.75;1.48;;;26.10;39.80;;;;;;5030829;28;20134;-62
2023/07/08 00:03:41;;;;;;;1.75;1.60;;;26.00;39.80;;;;;;5037033;28;20025;-61
2023/07/08 00:06:15;;;;;;;2.42;1.20;;;26.00;39.80;;;;;;5012889;28;20367;-63
2023/07/08 00:08:41;;;;;;;1.30;1.20;;;26.00;39.80;;;;;;5040684;28;20033;-62
2023/07/08 00:11:12;;;;;;;2.03;1.45;;;26.00;39.80;;;;;;5021938;28;20468;-60
2023/07/08 00:13:38;;;;;;;2.45;1.50;;;26.00;39.80;;;;;;5037672;28;20121;-62
2023/07/08 00:16:04;;;;;;;2.00;1.40;;;26.00;39.80;;;;;;5043623;28;20152;-62
2023/07/08 00:18:30;;;;;;;1.92;1.35;;;26.00;39.80;;;;;;5015697;28;20025;-62
2023/07/08 00:20:58;;;;;;;1.88;1.50;;;26.00;39.80;;;;;;5039594;28;20120;-64
2023/07/08 00:23:24;;;;;;;1.67;1.20;;;26.00;39.80;;;;;;5042620;28;20025;-65
2023/07/08 00:25:51;;;;;;;1.55;1.17;;;26.00;39.80;;;;;;5016318;28;20037;-63
2023/07/08 00:28:20;;;;;;;1.55;1.10;;;26.00;39.90;;;;;;5041975;28;20112;-61
2023/07/08 00:30:48;;;;;;;1.73;1.27;;;26.00;39.80;;;;;;5041543;28;20029;-63
2023/07/08 00:33:16;;;;;;;1.73;1.25;;;26.00;39.80;;;;;;5017980;28;20052;-62
2023/07/08 00:35:44;;;;;;;1.17;1.08;;;26.00;39.90;;;;;;5039978;28;20653;-62
2023/07/08 00:38:27;;;;;;;1.67;1.15;;;26.00;39.90;;;;;;5037414;28;20029;-62
2023/07/08 00:41:28;;;;;;;1.70;1.40;;;26.00;39.90;;;;;;5022412;28;20037;-63
2023/07/08 00:44:00;;;;;;;1.40;1.10;;;26.00;39.90;;;;;;5023641;28;20137;-63
2023/07/08 00:46:31;;;;;;;1.63;1.20;;;25.90;39.90;;;;;;5039475;28;20344;-62
2023/07/08 00:49:07;;;;;;;1.50;1.02;;;25.90;39.90;;;;;;5041141;28;20051;-63
2023/07/08 00:51:37;;;;;;;1.45;1.05;;;26.00;40.00;;;;;;5020157;28;20111;-63
2023/07/08 00:54:04;;;;;;;2.30;1.20;;;25.90;39.90;;;;;;5041415;28;20415;-65
2023/07/08 00:56:38;;;;;;;1.10;1.00;;;25.90;39.90;;;;;;5032235;28;20022;-62
2023/07/08 00:59:10;;;;;;;1.50;1.23;;;25.90;40.00;;;;;;5021334;28;20088;-63
2023/07/08 01:01:40;;;;;;;2.15;1.10;;;25.90;40.00;;;;;;5037333;28;20409;-61
2023/07/08 01:04:18;;;;;;;1.67;1.27;;;25.90;40.00;;;;;;5032581;28;21781;-61
2023/07/08 01:06:52;;;;;;;0.90;0.82;;;25.90;40.00;;;;;;5034509;28;20072;-65
2023/07/08 01:09:18;;;;;;;1.52;1.10;;;25.90;40.10;;;;;;5038297;28;20030;-63
2023/07/08 01:11:45;;;;;;;1.02;0.90;;;25.80;40.00;;;;;;5036750;28;20041;-61
2023/07/08 01:14:17;;;;;;;1.42;1.15;;;25.80;40.10;;;;;;5024405;28;20360;-61
2023/07/08 01:16:43;;;;;;;0.80;0.80;;;25.80;40.70;;;;;;5040139;28;20122;-62
2023/07/08 01:19:15;;;;;;;1.70;1.45;;;25.80;40.10;;;;;;5045023;28;21118;-64
2023/07/08 01:22:01;;;;;;;1.30;0.95;;;25.90;40.20;;;;;;5018302;28;20048;-65
2023/07/08 01:24:29;;;;;;;1.83;1.35;;;25.80;40.10;;;;;;5035243;28;20099;-63
2023/07/08 01:26:56;;;;;;;2.17;1.38;;;25.80;40.20;;;;;;5037638;28;20071;-63
2023/07/08 01:29:22;;;;;;;2.33;1.38;;;25.80;40.20;;;;;;5046967;28;20391;-61
2023/07/08 01:31:48;;;;;;;1.52;1.15;;;25.80;40.20;;;;;;5038639;28;20041;-62
2023/07/08 01:34:18;;;;;;;1.45;1.02;;;25.80;40.20;;;;;;5027270;28;20052;-62
2023/07/08 01:36:53;;;;;;;2.03;1.17;;;25.80;40.20;;;;;;5041687;28;20029;-63
2023/07/08 01:39:21;;;;;;;1.42;1.10;;;25.80;40.20;;;;;;5030011;28;20079;-63
2023/07/08 01:41:47;;;;;;;1.95;1.10;;;25.80;40.30;;;;;;5024023;28;20109;-64
2023/07/08 01:44:30;;;;;;;1.88;1.20;;;25.80;40.30;;;;;;5041261;28;20037;-62
2023/07/08 01:47:12;;;;;;;1.80;1.27;;;25.80;40.30;;;;;;5025839;28;20108;-65
2023/07/08 01:49:41;;;;;;;1.52;1.25;;;25.80;40.40;;;;;;5019522;28;20073;-61
2023/07/08 01:52:08;;;;;;;1.73;1.30;;;25.80;40.40;;;;;;5021528;28;20065;-64
2023/07/08 01:54:34;;;;;;;1.13;1.00;;;25.80;40.40;;;;;;5043052;28;20041;-63
2023/07/08 01:57:02;;;;;;;1.50;1.17;;;25.70;40.40;;;;;;5028493;28;20389;-63
2023/07/08 01:59:28;;;;;;;1.63;1.27;;;25.80;40.50;;;;;;5037237;28;20033;-61
2023/07/08 02:01:55;;;;;;;2.50;1.23;;;25.70;40.50;;;;;;5026126;28;20204;-62
2023/07/08 02:04:26;;;;;;;1.77;1.30;;;25.70;40.50;;;;;;5020949;28;20113;-63
2023/07/08 02:06:57;;;;;;;1.38;1.00;;;25.70;40.50;;;;;;5006109;28;20392;-62
2023/07/08 02:09:27;;;;;;;1.98;1.10;;;25.70;40.50;;;;;;5019879;28;20357;-61
2023/07/08 02:11:54;;;;;;;1.50;1.23;;;25.70;40.60;;;;;;5026864;28;20114;-61
2023/07/08 02:14:20;;;;;;;1.58;1.20;;;25.70;40.60;;;;;;5041104;28;20128;-65
2023/07/08 02:16:46;;;;;;;1.50;1.13;;;25.70;41.20;;;;;;5011929;28;20112;-61
2023/07/08 02:19:12;;;;;;;2.78;1.38;;;25.70;40.60;;;;;;5024103;28;20072;-62
2023/07/08 02:21:38;;;;;;;1.92;1.40;;;25.70;40.70;;;;;;5042920;28;20199;-63
2023/07/08 02:24:05;;;;;;;1.50;1.25;;;25.60;40.60;;;;;;5043521;28;20360;-62
2023/07/08 02:26:32;;;;;;;1.67;1.20;;;25.70;40.70;;;;;;5024984;28;20051;-63
2023/07/08 02:29:00;;;;;;;1.45;1.25;;;25.70;40.80;;;;;;5026491;28;20124;-66
2023/07/08 02:31:27;;;;;;;1.05;0.93;;;25.70;40.80;;;;;;5044799;28;20110;-64
2023/07/08 02:33:53;;;;;;;1.20;1.00;;;25.60;40.70;;;;;;5043414;28;20041;-63
2023/07/08 02:36:20;;;;;;;1.52;1.20;;;25.60;40.70;;;;;;5007844;28;20028;-65
2023/07/08 02:38:46;;;;;;;1.95;1.20;;;25.60;40.80;;;;;;5043325;28;20092;-61
2023/07/08 02:41:12;;;;;;;1.33;0.90;;;25.60;40.80;;;;;;5046717;28;20109;-62
2023/07/08 02:43:38;;;;;;;1.42;1.15;;;25.60;40.80;;;;;;5023880;28;20053;-64
2023/07/08 02:46:05;;;;;;;1.95;1.27;;;25.60;40.80;;;;;;5025513;28;20060;-62
2023/07/08 02:48:31;;;;;;;1.45;1.10;;;25.60;40.80;;;;;;5043999;28;20139;-65
2023/07/08 02:51:01;;;;;;;1.80;1.25;;;25.60;40.90;;;;;;5023310;28;20029;-63
2023/07/08 02:53:28;;;;;;;1.33;1.13;;;25.60;40.90;;;;;;5039091;28;20034;-63
2023/07/08 02:55:54;;;;;;;1.73;1.10;;;25.60;40.90;;;;;;5024406;28;20098;-63
2023/07/08 02:58:20;;;;;;;1.52;1.25;;;25.60;40.90;;;;;;5044856;28;20352;-62
2023/07/08 03:00:51;;;;;;;1.58;1.05;;;25.60;41.00;;;;;;5042119;28;20047;-64
2023/07/08 03:03:17;;;;;;;1.38;1.08;;;25.60;41.00;;;;;;5040064;28;20070;-65
2023/07/08 03:05:43;;;;;;;1.30;1.20;;;25.60;41.00;;;;;;5044818;28;20070;-63
2023/07/08 03:08:08;;;;;;;1.13;1.00;;;25.60;41.00;;;;;;5024876;28;20335;-65
2023/07/08 03:10:34;;;;;;;1.90;0.90;;;25.60;41.10;;;;;;5024748;28;21795;-64
2023/07/08 03:13:00;;;;;;;1.15;1.00;;;25.50;41.00;;;;;;5042247;28;20432;-64
2023/07/08 03:15:26;;;;;;;1.45;1.00;;;25.50;41.10;;;;;;5045048;28;20052;-63
2023/07/08 03:17:59;;;;;;;1.58;1.10;;;25.50;41.00;;;;;;5017507;28;20423;-62
2023/07/08 03:20:25;;;;;;;2.20;1.33;;;25.50;41.10;;;;;;5026178;28;20087;-65
2023/07/08 03:22:51;;;;;;;1.50;1.17;;;25.50;41.10;;;;;;5041359;28;20089;-63
2023/07/08 03:25:19;;;;;;;1.40;1.02;;;25.50;41.10;;;;;;5043530;28;20029;-62
2023/07/08 03:27:47;;;;;;;2.65;1.30;;;25.50;41.10;;;;;;5020012;28;20147;-64
2023/07/08 03:30:13;;;;;;;1.80;0.75;;;25.50;41.10;;;;;;5022742;28;20087;-64
2023/07/08 03:32:39;;;;;;;1.77;1.08;;;25.50;41.20;;;;;;5042839;28;20033;-63
2023/07/08 03:35:05;;;;;;;1.80;1.23;;;25.50;41.20;;;;;;5023347;28;20443;-63
2023/07/08 03:37:31;;;;;;;1.00;0.80;;;25.50;41.20;;;;;;5046119;28;20083;-65
2023/07/08 03:39:57;;;;;;;1.42;0.90;;;25.50;41.20;;;;;;5014917;28;20033;-64
2023/07/08 03:42:24;;;;;;;1.98;1.00;;;25.50;41.20;;;;;;5045784;28;20108;-64
2023/07/08 03:44:51;;;;;;;1.85;0.82;;;25.50;41.30;;;;;;5035615;28;20423;-62
2023/07/08 03:47:17;;;;;;;1.88;1.10;;;25.50;41.30;;;;;;5020521;28;20051;-65
2023/07/08 03:49:42;;;;;;;1.17;0.90;;;25.50;41.30;;;;;;5026108;28;20104;-62
2023/07/08 03:52:16;;;;;;;1.45;1.02;;;25.50;41.30;;;;;;5026039;28;20025;-61
2023/07/08 03:54:42;;;;;;;1.63;1.00;;;25.50;41.30;;;;;;5019079;28;20029;-64
2023/07/08 03:57:08;;;;;;;1.50;1.00;;;25.50;41.30;;;;;;5008485;28;20360;-62
2023/07/08 03:59:34;;;;;;;1.15;1.00;;;25.50;41.30;;;;;;5020595;28;20129;-64
2023/07/08 04:02:00;;;;;;;1.70;1.15;;;25.40;41.30;;;;;;5018579;28;20184;-65
2023/07/08 04:04:28;;;;;;;2.10;1.20;;;25.40;41.30;;;;;;5029874;28;20029;-62
2023/07/08 04:06:54;;;;;;;0.93;0.82;;;25.50;41.40;;;;;;5021449;28;20036;-65
2023/07/08 04:09:21;;;;;;;1.85;1.35;;;25.50;41.40;;;;;;5020993;28;20095;-65
2023/07/08 04:11:46;;;;;;;1.50;1.20;;;25.40;41.30;;;;;;5015414;28;20049;-61
2023/07/08 04:14:13;;;;;;;1.90;1.00;;;25.50;41.40;;;;;;5025659;28;20040;-60
2023/07/08 04:16:56;;;;;;;1.15;0.90;;;25.50;41.40;;;;;;5019907;28;20053;-62
2023/07/08 04:19:24;;;;;;;1.13;0.90;;;25.50;41.40;;;;;;5023355;28;20413;-62
2023/07/08 04:21:50;;;;;;;1.05;0.80;;;25.50;41.40;;;;;;5024671;28;20350;-64
2023/07/08 04:24:17;;;;;;;1.02;0.93;;;25.50;41.40;;;;;;5018476;28;20585;-62
2023/07/08 04:26:46;;;;;;;1.08;0.90;;;25.50;41.40;;;;;;5022759;28;20048;-62
2023/07/08 04:29:15;;;;;;;1.73;1.00;;;25.50;41.40;;;;;;5018281;28;20450;-64
2023/07/08 04:31:41;;;;;;;1.30;1.05;;;25.50;41.40;;;;;;5023666;28;20099;-64
2023/07/08 04:34:08;;;;;;;1.30;1.02;;;25.50;41.40;;;;;;5022878;28;20484;-65
2023/07/08 04:36:34;;;;;;;0.85;0.82;;;25.50;41.50;;;;;;5020737;28;20037;-65
2023/07/08 04:39:02;;;;;;;1.08;0.77;;;25.50;41.50;;;;;;5024193;28;20036;-62
2023/07/08 04:41:28;;;;;;;1.33;0.90;;;25.50;41.40;;;;;;5023992;28;20022;-61
2023/07/08 04:43:57;;;;;;;1.13;1.02;;;25.50;41.40;;;;;;5025575;28;20056;-62
2023/07/08 04:46:40;;;;;;;1.13;0.93;;;25.50;41.40;;;;;;5037784;28;20029;-62
2023/07/08 04:49:11;;;;;;;0.83;0.83;;;25.50;41.40;;;;;;5038906;28;20041;-63
2023/07/08 04:51:38;;;;;;;1.83;1.10;;;25.50;41.40;;;;;;5042077;28;20097;-65
2023/07/08 04:54:04;;;;;;;1.30;0.90;;;25.50;41.40;;;;;;5041975;28;20194;-63
2023/07/08 04:56:41;;;;;;;1.45;1.10;;;25.50;41.40;;;;;;5022738;28;20068;-62
2023/07/08 04:59:10;;;;;;;1.23;0.90;;;25.50;41.40;;;;;;5044176;28;20028;-63
2023/07/08 05:01:36;;;;;;;1.48;0.98;;;25.60;41.50;;;;;;5037313;28;20025;-60
2023/07/08 05:04:04;;;;;;;1.10;0.90;;;25.60;41.50;;;;;;5044837;28;20025;-62
2023/07/08 05:06:31;;;;;;;1.00;0.80;;;25.50;41.40;;;;;;5042560;28;20041;-63
2023/07/08 05:08:59;;;;;;;1.67;0.93;;;25.60;41.50;;;;;;5016928;28;21641;-64
2023/07/08 05:11:25;;;;;;;1.08;0.77;;;25.60;41.50;;;;;;5039566;28;20025;-63
2023/07/08 05:13:51;;;;;;;1.30;0.82;;;25.50;41.40;;;;;;5041363;28;20431;-63
2023/07/08 05:16:17;;;;;;;1.52;0.90;;;25.60;41.50;;;;;;5042225;28;20200;-63
2023/07/08 05:18:43;;;;;;;1.38;0.90;;;25.60;41.50;;;;;;5020070;28;20074;-62
2023/07/08 05:21:10;;;;;;;1.13;0.98;;;25.60;41.50;;;;;;5041914;28;20132;-63
2023/07/08 05:23:36;;;;;;;1.00;0.90;;;25.50;41.40;;;;;;5041893;28;20335;-63
2023/07/08 05:26:04;;;;;;;1.55;0.90;;;25.60;41.40;;;;;;5041120;28;20486;-61
2023/07/08 05:28:30;;;;;;;1.88;1.00;;;25.60;41.40;;;;;;5016152;28;20069;-62
2023/07/08 05:30:56;;;;;;;1.50;0.90;;;25.60;41.40;;;;;;5042770;28;20116;-65
2023/07/08 05:33:24;;;;;;;1.35;0.80;;;25.60;41.40;;;;;;5043949;28;20028;-63
2023/07/08 05:35:51;;;;;;;0.95;0.90;;;25.60;41.40;;;;;;5041287;28;20031;-63
2023/07/08 05:38:17;;;;;;;1.10;0.88;;;25.60;41.40;;;;;;5021725;28;20094;-63
2023/07/08 05:40:43;;;;;;;1.23;0.93;;;25.60;41.30;;;;;;5042887;28;20025;-63
2023/07/08 05:43:09;;;;;;;1.10;0.80;;;25.60;41.30;;;;;;5041640;28;20256;-64
2023/07/08 05:45:35;;;;;;;1.98;0.88;;;25.70;41.40;;;;;;5038664;28;20077;-63
2023/07/08 05:48:02;;;;;;;1.20;1.10;;;25.60;41.30;;;;;;5040091;28;20037;-65
2023/07/08 05:50:28;;;;;;;1.05;0.95;;;25.60;41.30;;;;;;5042543;28;20108;-63
2023/07/08 05:52:54;;;;;;;1.52;1.00;;;25.70;41.30;;;;;;5021286;28;20536;-63
2023/07/08 05:55:22;;;;;;;0.82;0.70;;;25.70;41.30;;;;;;5041070;28;20162;-63
2023/07/08 05:57:48;;;;;;;1.20;0.85;;;25.70;41.30;;;;;;5040618;28;20021;-63
2023/07/08 06:00:14;;;;;;;1.55;0.80;;;25.70;41.30;;;;;;5046879;28;20025;-61
2023/07/08 06:02:41;;;;;;;1.30;1.02;;;25.70;41.30;;;;;;5041573;28;20052;-65
2023/07/08 06:05:07;;;;;;;1.25;0.93;;;25.70;41.20;;;;;;5045928;28;20033;-65
2023/07/08 06:07:33;;;;;;;1.55;0.80;;;25.70;41.20;;;;;;5022851;28;20359;-61
2023/07/08 06:09:59;;;;;;;3.85;0.80;;;25.70;41.20;;;;;;5043594;28;20081;-64
2023/07/08 06:12:26;;;;;;;1.42;1.00;;;25.70;41.20;;;;;;5046735;28;20387;-62
2023/07/08 06:14:51;;;;;;;1.38;1.13;;;25.70;41.20;;;;;;5044585;28;20021;-61
2023/07/08 06:17:18;;;;;;;1.88;1.33;;;25.80;41.30;;;;;;5043088;28;20412;-65
2023/07/08 06:19:44;;;;;;;1.63;0.90;;;25.70;41.20;;;;;;5025323;28;20079;-62
2023/07/08 06:22:10;;;;;;;1.00;0.85;;;25.70;41.20;;;;;;5047226;28;20075;-64
2023/07/08 06:24:36;;;;;;;1.80;0.98;;;25.80;41.30;;;;;;5024217;28;20365;-62
2023/07/08 06:27:02;;;;;;;1.48;1.10;;;25.80;41.30;;;;;;5044683;28;20045;-64
2023/07/08 06:29:28;;;;;;;1.05;0.95;;;25.80;41.30;;;;;;5023405;28;20029;-64
2023/07/08 06:31:54;;;;;;;1.33;1.00;;;25.80;41.40;;;;;;5047445;28;20047;-64
2023/07/08 06:34:23;;;;;;;3.00;1.33;;;25.80;41.40;;;;;;5023636;28;20025;-62
2023/07/08 06:36:49;;;;;;;1.13;1.00;;;25.80;41.40;;;;;;5039593;28;20033;-62
2023/07/08 06:39:16;;;;;;;1.73;0.98;;;25.80;41.50;;;;;;5025227;28;20086;-62
2023/07/08 06:41:42;;;;;;;1.92;0.88;;;25.80;41.50;;;;;;5032610;28;20029;-64
2023/07/08 06:44:08;;;;;;;1.40;1.10;;;25.80;41.50;;;;;;5036019;28;20126;-62
2023/07/08 06:46:35;;;;;;;2.13;1.15;;;25.80;41.60;;;;;;5044320;28;20041;-65
2023/07/08 06:49:01;;;;;;;1.08;0.85;;;25.80;41.70;;;;;;5042914;28;20108;-65
2023/07/08 06:51:27;;;;;;;2.05;1.08;;;25.80;42.30;;;;;;5045986;28;20441;-63
2023/07/08 06:53:53;;;;;;;1.40;1.15;;;25.80;41.80;;;;;;5045245;28;20166;-61
2023/07/08 06:56:20;;;;;;;1.80;1.30;;;25.80;41.80;;;;;;5045053;28;20032;-63
2023/07/08 06:58:46;;;;;;;1.20;0.88;;;25.80;41.90;;;;;;5025506;28;20321;-62
2023/07/08 07:01:12;;;;;;;1.10;0.88;;;25.80;41.90;;;;;;5040722;28;20112;-61
2023/07/08 07:03:39;;;;;;;1.77;1.00;;;25.80;41.90;;;;;;5037668;28;20044;-62
2023/07/08 07:06:05;;;;;;;1.20;1.10;;;25.80;41.90;;;;;;5038407;28;20029;-63
2023/07/08 07:08:31;;;;;;;1.80;1.10;;;25.80;41.90;;;;;;5040051;28;20270;-63
2023/07/08 07:10:57;;;;;;;1.80;0.88;;;25.90;42.10;;;;;;5035732;28;20036;-67
2023/07/08 07:13:23;;;;;;;2.28;1.35;;;25.90;42.10;;;;;;5044704;28;20028;-63
2023/07/08 07:15:49;;;;;;;1.20;0.90;;;25.90;42.20;;;;;;5048274;28;20029;-63
2023/07/08 07:18:15;;;;;;;2.40;1.35;;;25.90;42.20;;;;;;5043168;28;20036;-62
2023/07/08 07:20:49;;;;;;;1.60;1.10;;;25.90;42.20;;;;;;5044667;28;20025;-62
2023/07/08 07:23:15;;;;;;;1.20;0.90;;;25.90;42.30;;;;;;5042337;28;20032;-64
2023/07/08 07:25:41;;;;;;;1.02;0.93;;;25.90;42.30;;;;;;5045028;28;20025;-64
2023/07/08 07:28:07;;;;;;;1.38;1.05;;;25.90;42.30;;;;;;5045137;28;20045;-64
2023/07/08 07:30:33;;;;;;;1.02;0.80;;;25.90;42.30;;;;;;5040057;28;20025;-64
2023/07/08 07:33:00;;;;;;;1.55;0.98;;;25.90;42.30;;;;;;5041895;28;20045;-66
2023/07/08 07:35:26;;;;;;;2.05;1.15;;;25.90;42.30;;;;;;5019997;28;20158;-63
2023/07/08 07:37:52;;;;;;;2.08;1.52;;;25.90;42.50;;;;;;5042932;28;20056;-64
2023/07/08 07:40:18;;;;;;;1.35;0.90;;;25.90;42.50;;;;;;5024593;28;20066;-64
2023/07/08 07:42:47;;;;;;;1.77;1.00;;;25.90;42.50;;;;;;5025188;28;20033;-61
2023/07/08 07:45:13;;;;;;;1.60;0.90;;;25.90;42.60;;;;;;5045210;28;20368;-62
2023/07/08 07:47:40;;;;;;;1.38;1.10;;;26.00;42.70;;;;;;5040269;28;20436;-63
2023/07/08 07:50:08;;;;;;;1.52;1.20;;;26.00;42.70;;;;;;5021719;28;20320;-61
2023/07/08 07:52:34;;;;;;;1.98;1.20;;;26.00;42.90;;;;;;5039262;28;20435;-64
2023/07/08 07:55:01;;;;;;;2.35;1.30;;;26.00;43.00;;;;;;5026560;28;20039;-61
2023/07/08 07:57:27;;;;;;;3.40;1.55;;;26.00;43.10;;;;;;5036040;28;20130;-63
2023/07/08 07:59:52;;;;;;;2.17;1.30;;;26.00;43.10;;;;;;5037201;28;20033;-64
2023/07/08 08:02:19;;;;;;;2.17;1.30;;;26.10;43.20;;;;;;5040589;28;20426;-64
2023/07/08 08:04:45;;;;;;;3.28;1.30;;;26.10;43.20;;;;;;5022243;28;20043;-65
2023/07/08 08:07:11;;;;;;;2.25;1.60;;;26.10;43.30;;;;;;5018801;28;20486;-67
2023/07/08 08:09:37;;;;;;;2.30;1.30;;;26.10;43.30;;;;;;5041948;28;20033;-67
2023/07/08 08:12:04;;;;;;;1.60;1.27;;;26.10;43.30;;;;;;5036448;28;20354;-62
2023/07/08 08:14:30;;;;;;;3.53;1.50;;;26.10;43.30;;;;;;5041088;28;20096;-65
2023/07/08 08:16:56;;;;;;;1.40;1.23;;;26.10;43.40;;;;;;5041807;28;20083;-64
2023/07/08 08:19:22;;;;;;;3.42;1.17;;;26.10;43.40;;;;;;5022623;28;20291;-65
2023/07/08 08:21:48;;;;;;;1.77;1.25;;;26.10;43.40;;;;;;5043726;28;20043;-66
2023/07/08 08:24:14;;;;;;;3.30;1.65;;;26.10;43.40;;;;;;5038695;28;20025;-64
2023/07/08 08:26:40;;;;;;;1.90;1.40;;;26.10;43.40;;;;;;5043499;28;20322;-66
2023/07/08 08:29:06;;;;;;;3.00;1.40;;;26.10;43.40;;;;;;5040678;28;20035;-62
2023/07/08 08:31:32;;;;;;;2.85;1.52;;;26.10;43.50;;;;;;5040294;28;20046;-65
2023/07/08 08:33:58;;;;;;;2.00;1.63;;;26.10;44.20;;;;;;5038046;28;20034;-65
2023/07/08 08:36:27;;;;;;;1.80;1.35;;;26.10;43.60;;;;;;5044056;28;20025;-61
2023/07/08 08:38:53;;;;;;;2.85;1.30;;;26.10;43.60;;;;;;5042204;28;20091;-62
2023/07/08 08:41:28;;;;;;;2.65;1.50;;;26.10;43.70;;;;;;5044832;28;20059;-65
2023/07/08 08:43:55;;;;;;;1.77;1.15;;;26.20;43.90;;;;;;5043549;28;20108;-65
2023/07/08 08:46:31;;;;;;;2.15;1.50;;;26.10;43.80;;;;;;5049306;28;20036;-64
2023/07/08 08:49:40;;;;;;;2.97;1.40;;;26.20;44.00;;;;;;5021876;28;20021;-62
2023/07/08 08:52:06;;;;;;;3.03;1.70;;;26.20;44.00;;;;;;5038254;28;20052;-64
2023/07/08 08:54:32;;;;;;;1.92;1.30;;;26.20;44.00;;;;;;5036992;28;20043;-65
2023/07/08 08:57:30;;;;;;;2.28;1.73;;;26.20;44.10;;;;;;5041110;28;20029;-65
2023/07/08 08:59:58;;;;;;;2.22;1.38;;;26.20;44.10;;;;;;5021843;28;20356;-64
2023/07/08 09:02:51;;;;;;;2.15;1.40;;;26.10;44.00;;;;;;5039120;28;20025;-64
2023/07/08 09:05:17;;;;;;;2.40;1.67;;;26.20;44.10;;;;;;5035992;28;20030;-62
2023/07/08 09:08:03;;;;;;;1.60;1.30;;;26.20;44.20;;;;;;5036699;28;20083;-63
2023/07/08 09:10:40;;;;;;;2.75;1.52;;;26.20;44.20;;;;;;5032775;28;20085;-64
2023/07/08 09:13:12;;;;;;;2.15;1.35;;;26.20;44.20;;;;;;5029403;28;20132;-61
2023/07/08 09:15:38;;;;;;;1.85;1.40;;;26.20;44.30;;;;;;5035097;28;20349;-65
2023/07/08 09:18:27;;;;;;;2.35;1.67;;;26.20;44.30;;;;;;5039493;28;20447;-59
2023/07/08 09:20:56;;;;;;;1.90;1.33;;;26.20;44.30;;;;;;5032873;28;20409;-61
2023/07/08 09:23:29;;;;;;;1.83;1.55;;;26.20;44.40;;;;;;5035156;28;20025;-62
2023/07/08 09:26:02;;;;;;;1.92;1.58;;;26.20;44.40;;;;;;5034445;28;20076;-61
2023/07/08 09:28:43;;;;;;;2.00;1.40;;;26.20;44.40;;;;;;5041004;28;20117;-62
2023/07/08 09:31:24;;;;;;;1.90;1.60;;;26.20;44.60;;;;;;5038341;28;20028;-63
2023/07/08 09:33:53;;;;;;;1.95;1.58;;;26.20;44.60;;;;;;5039855;28;20096;-64
2023/07/08 09:36:23;;;;;;;2.70;1.65;;;26.20;44.60;;;;;;5023450;28;20082;-61
2023/07/08 09:38:51;;;;;;;1.95;1.60;;;26.20;44.60;;;;;;5048409;28;20021;-63
2023/07/08 09:41:32;;;;;;;2.63;1.95;;;26.20;44.60;;;;;;5018356;28;20115;-62
2023/07/08 09:44:05;;;;;;;2.00;1.40;;;26.30;44.70;;;;;;5046263;28;20041;-61
2023/07/08 09:46:37;;;;;;;2.53;2.15;;;26.30;44.80;;;;;;5040707;28;20443;-56
2023/07/08 09:49:39;;;;;;;3.25;2.00;;;26.30;44.90;;;;;;5042402;28;20104;-62
2023/07/08 09:52:05;;;;;;;2.25;1.95;;;26.30;45.10;;;;;;5028473;28;20432;-62
2023/07/08 09:54:32;;;;;;;2.95;2.08;;;26.30;45.10;;;;;;5044877;28;20340;-58
2023/07/08 09:57:04;;;;;;;3.40;2.10;;;26.30;45.10;;;;;;5044351;28;20428;-61
2023/07/08 09:59:34;;;;;;;3.45;2.28;;;26.30;45.10;;;;;;5025388;28;20393;-61
2023/07/08 10:02:03;;;;;;;4.65;2.30;;;26.30;45.10;;;;;;5047679;28;20093;-58
2023/07/08 10:04:30;;;;;;;3.55;2.20;;;26.40;45.20;;;;;;5046601;28;20056;-57
2023/07/08 10:06:56;;;;;;;2.25;1.80;;;26.40;45.10;;;;;;5042652;28;20527;-59
2023/07/08 10:09:24;;;;;;;2.92;2.08;;;26.40;45.60;;;;;;5045183;28;20072;-59
2023/07/08 10:12:04;;;;;;;3.22;2.30;;;26.40;45.10;;;;;;5046487;28;20033;-60
2023/07/08 10:14:47;;;;;;;3.72;1.88;;;26.40;45.10;;;;;;5039787;28;20739;-60
2023/07/08 10:17:19;;;;;;;2.95;2.30;;;26.40;45.10;;;;;;5039773;28;20047;-61
2023/07/08 10:19:45;;;;;;;2.95;2.20;;;26.40;45.10;;;;;;5028431;28;20029;-59
2023/07/08 10:23:01;;;;;;;4.63;2.20;;;26.50;45.20;;;;;;5047393;28;20040;-62
2023/07/08 10:26:25;;;;;;;3.30;2.20;;;26.50;45.20;;;;;;4996115;28;20045;-61
2023/07/08 10:29:13;;;;;;;3.28;2.30;;;26.50;45.20;;;;;;4964292;28;20137;-57
2023/07/08 10:32:02;;;;;;;2.30;2.10;;;26.50;45.20;;;;;;4965702;28;20077;-61
2023/07/08 10:34:40;;;;;;;4.03;2.17;;;26.50;45.20;;;;;;5036616;28;20052;-62
2023/07/08 10:37:29;;;;;;;3.55;2.13;;;26.50;45.20;;;;;;5041579;28;20040;-62
2023/07/08 10:40:09;;;;;;;2.88;2.15;;;26.50;45.20;;;;;;5044446;28;20433;-60
2023/07/08 10:43:12;;;;;;;3.88;2.42;;;26.50;45.30;;;;;;5042552;28;20111;-59
2023/07/08 10:45:45;;;;;;;3.20;2.28;;;26.50;45.30;;;;;;5043099;28;20124;-62
2023/07/08 10:48:27;;;;;;;4.13;2.87;;;26.50;45.30;;;;;;5043903;28;20345;-58
2023/07/08 10:51:02;;;;;;;3.22;2.55;;;26.60;45.40;;;;;;5044075;28;20109;-60
2023/07/08 10:54:09;;;;;;;3.60;2.28;;;26.60;45.40;;;;;;5041627;28;20186;-63
2023/07/08 10:56:51;;;;;;;3.22;2.30;;;26.60;45.40;;;;;;5017949;28;20037;-61
2023/07/08 10:59:35;;;;;;;3.65;2.80;;;26.60;45.40;;;;;;5045543;28;20452;-62
2023/07/08 11:02:09;;;;;;;3.17;2.30;;;26.60;45.40;;;;;;5041558;28;20074;-62
2023/07/08 11:04:51;;;;;;;5.20;2.60;;;26.60;45.40;;;;;;5043061;28;20459;-62
2023/07/08 11:07:39;;;;;;;3.83;2.47;;;26.60;45.50;;;;;;5044264;28;20446;-59
2023/07/08 11:10:22;;;;;;;3.17;2.40;;;26.60;45.80;;;;;;5004127;28;20034;-61
2023/07/08 11:12:55;;;;;;;5.28;2.40;;;26.70;45.90;;;;;;5001471;28;20135;-57
2023/07/08 11:15:42;;;;;;;3.13;2.60;;;26.70;45.90;;;;;;5004901;28;20163;-62
2023/07/08 11:18:17;;;;;;;4.10;2.80;;;26.70;45.90;;;;;;5001856;28;20185;-60
2023/07/08 11:20:45;;;;;;;3.35;2.53;;;26.70;45.90;;;;;;5003582;28;20100;-61
2023/07/08 11:23:28;;;;;;;3.17;2.80;;;26.80;46.00;;;;;;5006655;28;20344;-63
2023/07/08 11:26:18;;;;;;;2.70;2.40;;;26.80;46.00;;;;;;5000711;28;20033;-63
2023/07/08 11:28:44;;;;;;;4.88;2.45;;;26.80;45.90;;;;;;4996825;28;20046;-61
2023/07/08 11:31:11;;;;;;;3.55;2.55;;;26.80;45.90;;;;;;4978198;28;20489;-61
2023/07/08 11:33:38;;;;;;;3.88;3.00;;;26.80;45.90;;;;;;4999720;28;20381;-60
2023/07/08 11:36:05;;;;;;;3.35;2.40;;;26.80;45.80;;;;;;4997477;28;20050;-60
2023/07/08 11:38:34;;;;;;;3.40;2.70;;;26.80;45.80;;;;;;4994268;28;20040;-62
2023/07/08 11:41:31;;;;;;;5.13;2.67;;;26.80;45.80;;;;;;4995394;28;20130;-62
2023/07/08 11:43:59;;;;;;;4.10;2.90;;;26.90;45.80;;;;;;4995251;28;21550;-63
2023/07/08 11:46:31;;;;;;;2.67;2.38;;;26.90;46.40;;;;;;4999550;28;20058;-63
2023/07/08 11:49:11;;;;;;;3.13;2.35;;;26.90;45.80;;;;;;5038189;28;20035;-60
2023/07/08 11:51:46;;;;;;;3.47;2.60;;;26.90;45.80;;;;;;5036899;28;20044;-60
2023/07/08 11:54:30;;;;;;;4.03;3.00;;;26.90;45.80;;;;;;5041157;28;20116;-62
2023/07/08 11:57:09;;;;;;;3.55;2.85;;;26.90;45.80;;;;;;5041264;28;20478;-60
2023/07/08 11:59:40;;;;;;;3.30;2.58;;;26.90;45.80;;;;;;5044684;28;20058;-60
2023/07/08 12:02:13;;;;;;;3.72;2.67;;;26.90;45.90;;;;;;5040643;28;20108;-60
2023/07/08 12:05:02;;;;;;;3.97;3.20;;;26.90;45.90;;;;;;5024267;28;20074;-63
2023/07/08 12:07:36;;;;;;;3.72;2.70;;;26.90;46.00;;;;;;5042433;28;20106;-61
2023/07/08 12:10:10;;;;;;;3.55;2.95;;;26.90;46.00;;;;;;5039914;28;20073;-60
2023/07/08 12:12:40;;;;;;;2.90;2.60;;;27.00;46.10;;;;;;5042968;28;20484;-62
2023/07/08 12:15:16;;;;;;;5.85;2.75;;;27.00;46.10;;;;;;5042296;28;20033;-62
2023/07/08 12:17:42;;;;;;;4.18;2.53;;;27.00;46.20;;;;;;5035754;28;20033;-59
2023/07/08 12:20:26;;;;;;;3.20;2.60;;;27.00;46.30;;;;;;5035671;28;20113;-61
2023/07/08 12:22:52;;;;;;;4.05;2.70;;;27.00;46.30;;;;;;5038159;28;20029;-60
2023/07/08 12:25:22;;;;;;;3.97;2.95;;;27.00;46.40;;;;;;5043245;28;20129;-61
2023/07/08 12:27:48;;;;;;;5.82;3.00;;;27.00;46.40;;;;;;5037428;28;20128;-61
2023/07/08 12:30:16;;;;;;;3.70;2.92;;;27.10;46.50;;;;;;5036999;28;20397;-62
2023/07/08 12:32:43;;;;;;;3.08;2.42;;;27.10;46.60;;;;;;5044211;28;20066;-60
2023/07/08 12:35:28;;;;;;;3.88;2.70;;;27.10;46.60;;;;;;5041720;28;20499;-61
2023/07/08 12:38:00;;;;;;;3.38;2.70;;;27.10;46.70;;;;;;5040499;28;20030;-60
2023/07/08 12:40:29;;;;;;;3.90;2.88;;;27.20;46.70;;;;;;5040008;28;20040;-60
2023/07/08 12:42:56;;;;;;;3.60;2.45;;;27.10;46.80;;;;;;5039153;28;20102;-59
2023/07/08 12:45:25;;;;;;;3.80;2.38;;;27.20;47.50;;;;;;5040180;28;20044;-60
2023/07/08 12:47:51;;;;;;;3.28;2.38;;;27.20;46.90;;;;;;5038899;28;20096;-60
2023/07/08 12:50:17;;;;;;;3.35;2.78;;;27.20;46.90;;;;;;5038510;28;20026;-60
2023/07/08 12:52:47;;;;;;;4.25;3.28;;;27.20;46.80;;;;;;5030540;28;20032;-62
2023/07/08 12:55:15;;;;;;;2.60;2.30;;;27.20;46.70;;;;;;5044095;28;20119;-61
2023/07/08 12:57:46;;;;;;;3.40;2.63;;;27.20;46.60;;;;;;5045379;28;20040;-62
2023/07/08 13:00:20;;;;;;;4.38;3.00;;;27.20;46.50;;;;;;5040709;28;20021;-62
2023/07/08 13:02:48;;;;;;;4.83;3.07;;;27.20;46.50;;;;;;5031813;28;20136;-60
2023/07/08 13:05:14;;;;;;;4.18;2.78;;;27.20;46.40;;;;;;5037869;28;20109;-62